sensor_id;sensor_type;location;lat;lon;timestamp;P1;durP1;ratioP1;P2;durP2;ratioP2
22857;SDS011;13919;45.644;13.764;2022-08-20T00:00:33;8.77;;;3.20;;
22857;SDS011;13919;45.644;13.764;2022-08-20T00:03:12;7.13;;;3.20;;
22857;SDS011;13919;45.644;13.764;2022-08-20T00:05:40;11.27;;;3.10;;
22857;SDS011;13919;45.644;13.764;2022-08-20T00:08:07;6.25;;;2.90;;
22857;SDS011;13919;45.644;13.764;2022-08-20T00:10:34;9.20;;;3.03;;
22857;SDS011;13919;45.644;13.764;2022-08-20T00:13:01;9.57;;;3.10;;
22857;SDS011;13919;45.644;13.764;2022-08-20T00:15:29;10.27;;;3.05;;
22857;SDS011;13919;45.644;13.764;2022-08-20T00:17:55;9.07;;;3.30;;
22857;SDS011;13919;45.644;13.764;2022-08-20T00:20:22;6.15;;;3.25;;
22857;SDS011;13919;45.644;13.764;2022-08-20T00:22:50;9.00;;;3.35;;
22857;SDS011;13919;45.644;13.764;2022-08-20T00:25:16;9.13;;;3.25;;
22857;SDS011;13919;45.644;13.764;2022-08-20T00:27:42;10.07;;;2.97;;
22857;SDS011;13919;45.644;13.764;2022-08-20T00:30:09;6.15;;;3.33;;
22857;SDS011;13919;45.644;13.764;2022-08-20T00:32:52;10.07;;;3.30;;
22857;SDS011;13919;45.644;13.764;2022-08-20T00:35:20;7.95;;;3.45;;
22857;SDS011;13919;45.644;13.764;2022-08-20T00:37:46;13.00;;;3.85;;
22857;SDS011;13919;45.644;13.764;2022-08-20T00:40:13;5.28;;;2.95;;
22857;SDS011;13919;45.644;13.764;2022-08-20T00:42:41;7.53;;;3.17;;
22857;SDS011;13919;45.644;13.764;2022-08-20T00:45:07;9.85;;;3.28;;
22857;SDS011;13919;45.644;13.764;2022-08-20T00:47:33;10.00;;;3.63;;
22857;SDS011;13919;45.644;13.764;2022-08-20T00:50:01;8.65;;;3.78;;
22857;SDS011;13919;45.644;13.764;2022-08-20T00:52:30;11.20;;;3.65;;
22857;SDS011;13919;45.644;13.764;2022-08-20T00:54:57;8.13;;;3.67;;
22857;SDS011;13919;45.644;13.764;2022-08-20T00:57:25;10.10;;;3.28;;
22857;SDS011;13919;45.644;13.764;2022-08-20T00:59:54;9.93;;;3.70;;
22857;SDS011;13919;45.644;13.764;2022-08-20T01:02:21;11.43;;;4.05;;
22857;SDS011;13919;45.644;13.764;2022-08-20T01:04:49;8.15;;;3.38;;
22857;SDS011;13919;45.644;13.764;2022-08-20T01:07:19;9.52;;;3.88;;
22857;SDS011;13919;45.644;13.764;2022-08-20T01:09:45;9.52;;;3.47;;
22857;SDS011;13919;45.644;13.764;2022-08-20T01:12:12;7.30;;;3.53;;
22857;SDS011;13919;45.644;13.764;2022-08-20T01:14:40;9.48;;;3.33;;
22857;SDS011;13919;45.644;13.764;2022-08-20T01:17:10;11.32;;;3.83;;
22857;SDS011;13919;45.644;13.764;2022-08-20T01:19:41;8.55;;;3.92;;
22857;SDS011;13919;45.644;13.764;2022-08-20T01:22:08;8.77;;;3.45;;
22857;SDS011;13919;45.644;13.764;2022-08-20T01:24:55;10.65;;;2.88;;
22857;SDS011;13919;45.644;13.764;2022-08-20T01:27:22;8.13;;;3.45;;
22857;SDS011;13919;45.644;13.764;2022-08-20T01:29:49;9.60;;;3.28;;
22857;SDS011;13919;45.644;13.764;2022-08-20T01:32:16;7.85;;;3.17;;
22857;SDS011;13919;45.644;13.764;2022-08-20T01:34:42;7.00;;;3.38;;
22857;SDS011;13919;45.644;13.764;2022-08-20T01:37:08;13.23;;;3.67;;
22857;SDS011;13919;45.644;13.764;2022-08-20T01:39:34;9.05;;;3.47;;
22857;SDS011;13919;45.644;13.764;2022-08-20T01:42:11;8.40;;;3.35;;
22857;SDS011;13919;45.644;13.764;2022-08-20T01:44:41;8.55;;;3.00;;
22857;SDS011;13919;45.644;13.764;2022-08-20T01:49:39;7.93;;;3.20;;
22857;SDS011;13919;45.644;13.764;2022-08-20T01:52:08;8.07;;;3.15;;
22857;SDS011;13919;45.644;13.764;2022-08-20T01:54:35;6.47;;;3.20;;
22857;SDS011;13919;45.644;13.764;2022-08-20T01:57:09;9.68;;;3.63;;
22857;SDS011;13919;45.644;13.764;2022-08-20T01:59:36;7.25;;;3.10;;
22857;SDS011;13919;45.644;13.764;2022-08-20T02:02:02;9.68;;;3.35;;
22857;SDS011;13919;45.644;13.764;2022-08-20T02:04:29;14.73;;;2.88;;
22857;SDS011;13919;45.644;13.764;2022-08-20T02:06:56;11.75;;;3.15;;
22857;SDS011;13919;45.644;13.764;2022-08-20T02:09:22;10.45;;;3.22;;
22857;SDS011;13919;45.644;13.764;2022-08-20T02:11:49;7.22;;;2.90;;
22857;SDS011;13919;45.644;13.764;2022-08-20T02:14:17;7.45;;;3.65;;
22857;SDS011;13919;45.644;13.764;2022-08-20T02:16:44;8.93;;;3.25;;
22857;SDS011;13919;45.644;13.764;2022-08-20T02:19:16;8.63;;;3.17;;
22857;SDS011;13919;45.644;13.764;2022-08-20T02:21:44;8.27;;;3.33;;
22857;SDS011;13919;45.644;13.764;2022-08-20T02:24:10;8.38;;;3.47;;
22857;SDS011;13919;45.644;13.764;2022-08-20T02:26:37;9.40;;;3.30;;
22857;SDS011;13919;45.644;13.764;2022-08-20T02:29:04;9.52;;;3.25;;
22857;SDS011;13919;45.644;13.764;2022-08-20T02:31:31;9.27;;;3.42;;
22857;SDS011;13919;45.644;13.764;2022-08-20T02:33:57;12.02;;;3.50;;
22857;SDS011;13919;45.644;13.764;2022-08-20T02:36:23;9.02;;;3.17;;
22857;SDS011;13919;45.644;13.764;2022-08-20T02:38:51;9.15;;;3.67;;
22857;SDS011;13919;45.644;13.764;2022-08-20T02:41:18;7.97;;;3.25;;
22857;SDS011;13919;45.644;13.764;2022-08-20T02:43:46;8.68;;;3.10;;
22857;SDS011;13919;45.644;13.764;2022-08-20T02:46:12;11.60;;;3.55;;
22857;SDS011;13919;45.644;13.764;2022-08-20T02:48:39;10.90;;;3.33;;
22857;SDS011;13919;45.644;13.764;2022-08-20T02:51:06;16.15;;;3.45;;
22857;SDS011;13919;45.644;13.764;2022-08-20T02:53:34;8.13;;;3.10;;
22857;SDS011;13919;45.644;13.764;2022-08-20T02:56:01;13.65;;;3.20;;
22857;SDS011;13919;45.644;13.764;2022-08-20T02:58:27;8.63;;;3.25;;
22857;SDS011;13919;45.644;13.764;2022-08-20T03:00:53;8.65;;;3.20;;
22857;SDS011;13919;45.644;13.764;2022-08-20T03:03:20;5.72;;;3.08;;
22857;SDS011;13919;45.644;13.764;2022-08-20T03:05:49;10.20;;;3.92;;
22857;SDS011;13919;45.644;13.764;2022-08-20T03:08:16;8.80;;;3.20;;
22857;SDS011;13919;45.644;13.764;2022-08-20T03:10:43;11.70;;;3.30;;
22857;SDS011;13919;45.644;13.764;2022-08-20T03:13:10;7.80;;;2.67;;
22857;SDS011;13919;45.644;13.764;2022-08-20T03:15:37;7.85;;;2.78;;
22857;SDS011;13919;45.644;13.764;2022-08-20T03:18:03;6.45;;;2.78;;
22857;SDS011;13919;45.644;13.764;2022-08-20T03:20:29;7.28;;;2.60;;
22857;SDS011;13919;45.644;13.764;2022-08-20T03:22:55;12.65;;;3.38;;
22857;SDS011;13919;45.644;13.764;2022-08-20T03:25:22;10.05;;;3.28;;
22857;SDS011;13919;45.644;13.764;2022-08-20T03:27:48;9.60;;;2.83;;
22857;SDS011;13919;45.644;13.764;2022-08-20T03:30:15;10.50;;;3.60;;
22857;SDS011;13919;45.644;13.764;2022-08-20T03:32:41;7.95;;;2.65;;
22857;SDS011;13919;45.644;13.764;2022-08-20T03:35:09;10.10;;;3.30;;
22857;SDS011;13919;45.644;13.764;2022-08-20T03:37:36;9.83;;;3.23;;
22857;SDS011;13919;45.644;13.764;2022-08-20T03:40:03;8.85;;;3.50;;
22857;SDS011;13919;45.644;13.764;2022-08-20T03:42:30;11.23;;;4.18;;
22857;SDS011;13919;45.644;13.764;2022-08-20T03:44:56;11.90;;;3.75;;
22857;SDS011;13919;45.644;13.764;2022-08-20T03:47:22;8.10;;;3.33;;
22857;SDS011;13919;45.644;13.764;2022-08-20T03:49:48;7.72;;;3.50;;
22857;SDS011;13919;45.644;13.764;2022-08-20T03:52:14;9.52;;;3.30;;
22857;SDS011;13919;45.644;13.764;2022-08-20T03:54:41;8.70;;;3.30;;
22857;SDS011;13919;45.644;13.764;2022-08-20T03:57:14;15.18;;;4.05;;
22857;SDS011;13919;45.644;13.764;2022-08-20T03:59:41;10.55;;;3.00;;
22857;SDS011;13919;45.644;13.764;2022-08-20T04:02:09;11.82;;;3.63;;
22857;SDS011;13919;45.644;13.764;2022-08-20T04:04:35;11.40;;;3.70;;
22857;SDS011;13919;45.644;13.764;2022-08-20T04:07:12;8.70;;;3.20;;
22857;SDS011;13919;45.644;13.764;2022-08-20T04:09:39;10.85;;;3.50;;
22857;SDS011;13919;45.644;13.764;2022-08-20T04:12:05;10.77;;;3.42;;
22857;SDS011;13919;45.644;13.764;2022-08-20T04:14:32;12.15;;;3.83;;
22857;SDS011;13919;45.644;13.764;2022-08-20T04:17:05;7.22;;;2.90;;
22857;SDS011;13919;45.644;13.764;2022-08-20T04:19:31;8.55;;;2.85;;
22857;SDS011;13919;45.644;13.764;2022-08-20T04:21:57;7.13;;;3.30;;
22857;SDS011;13919;45.644;13.764;2022-08-20T04:24:23;10.27;;;3.50;;
22857;SDS011;13919;45.644;13.764;2022-08-20T04:26:51;11.05;;;3.17;;
22857;SDS011;13919;45.644;13.764;2022-08-20T04:29:17;8.38;;;2.83;;
22857;SDS011;13919;45.644;13.764;2022-08-20T04:31:43;9.65;;;3.13;;
22857;SDS011;13919;45.644;13.764;2022-08-20T04:34:09;10.27;;;3.15;;
22857;SDS011;13919;45.644;13.764;2022-08-20T04:36:35;9.20;;;3.05;;
22857;SDS011;13919;45.644;13.764;2022-08-20T04:39:01;9.93;;;3.20;;
22857;SDS011;13919;45.644;13.764;2022-08-20T04:41:27;8.77;;;3.08;;
22857;SDS011;13919;45.644;13.764;2022-08-20T04:43:54;11.23;;;3.10;;
22857;SDS011;13919;45.644;13.764;2022-08-20T04:46:21;10.95;;;2.72;;
22857;SDS011;13919;45.644;13.764;2022-08-20T04:48:49;9.65;;;3.40;;
22857;SDS011;13919;45.644;13.764;2022-08-20T04:51:15;8.38;;;3.13;;
22857;SDS011;13919;45.644;13.764;2022-08-20T04:53:41;12.60;;;3.03;;
22857;SDS011;13919;45.644;13.764;2022-08-20T04:56:08;11.13;;;3.55;;
22857;SDS011;13919;45.644;13.764;2022-08-20T04:58:36;8.32;;;2.95;;
22857;SDS011;13919;45.644;13.764;2022-08-20T05:01:06;9.00;;;3.08;;
22857;SDS011;13919;45.644;13.764;2022-08-20T05:03:32;10.18;;;3.60;;
22857;SDS011;13919;45.644;13.764;2022-08-20T05:05:59;8.75;;;3.22;;
22857;SDS011;13919;45.644;13.764;2022-08-20T05:08:25;8.30;;;3.47;;
22857;SDS011;13919;45.644;13.764;2022-08-20T05:10:53;9.82;;;3.40;;
22857;SDS011;13919;45.644;13.764;2022-08-20T05:13:20;11.90;;;3.33;;
22857;SDS011;13919;45.644;13.764;2022-08-20T05:15:46;12.38;;;3.58;;
22857;SDS011;13919;45.644;13.764;2022-08-20T05:18:19;12.38;;;3.30;;
22857;SDS011;13919;45.644;13.764;2022-08-20T05:20:46;10.18;;;3.05;;
22857;SDS011;13919;45.644;13.764;2022-08-20T05:23:13;13.48;;;3.08;;
22857;SDS011;13919;45.644;13.764;2022-08-20T05:25:40;9.80;;;3.15;;
22857;SDS011;13919;45.644;13.764;2022-08-20T05:28:09;10.15;;;3.30;;
22857;SDS011;13919;45.644;13.764;2022-08-20T05:30:38;11.85;;;3.55;;
22857;SDS011;13919;45.644;13.764;2022-08-20T05:33:04;12.88;;;3.60;;
22857;SDS011;13919;45.644;13.764;2022-08-20T05:35:32;12.77;;;4.38;;
22857;SDS011;13919;45.644;13.764;2022-08-20T05:38:00;14.77;;;4.05;;
22857;SDS011;13919;45.644;13.764;2022-08-20T05:40:27;10.32;;;3.72;;
22857;SDS011;13919;45.644;13.764;2022-08-20T05:42:53;10.20;;;3.83;;
22857;SDS011;13919;45.644;13.764;2022-08-20T05:45:19;16.15;;;4.07;;
22857;SDS011;13919;45.644;13.764;2022-08-20T05:47:46;11.50;;;3.88;;
22857;SDS011;13919;45.644;13.764;2022-08-20T05:50:13;10.45;;;4.10;;
22857;SDS011;13919;45.644;13.764;2022-08-20T05:52:40;13.70;;;3.38;;
22857;SDS011;13919;45.644;13.764;2022-08-20T05:55:07;12.82;;;3.78;;
22857;SDS011;13919;45.644;13.764;2022-08-20T05:57:34;13.88;;;3.63;;
22857;SDS011;13919;45.644;13.764;2022-08-20T06:00:00;8.27;;;3.35;;
22857;SDS011;13919;45.644;13.764;2022-08-20T06:02:27;12.00;;;3.53;;
22857;SDS011;13919;45.644;13.764;2022-08-20T06:05:12;9.23;;;3.08;;
22857;SDS011;13919;45.644;13.764;2022-08-20T06:07:38;10.30;;;3.35;;
22857;SDS011;13919;45.644;13.764;2022-08-20T06:10:05;10.27;;;3.40;;
22857;SDS011;13919;45.644;13.764;2022-08-20T06:12:32;7.80;;;2.95;;
22857;SDS011;13919;45.644;13.764;2022-08-20T06:14:58;7.47;;;3.00;;
22857;SDS011;13919;45.644;13.764;2022-08-20T06:17:25;9.85;;;2.92;;
22857;SDS011;13919;45.644;13.764;2022-08-20T06:19:53;9.27;;;3.15;;
22857;SDS011;13919;45.644;13.764;2022-08-20T06:22:19;8.00;;;3.10;;
22857;SDS011;13919;45.644;13.764;2022-08-20T06:24:45;9.93;;;2.85;;
22857;SDS011;13919;45.644;13.764;2022-08-20T06:27:12;11.93;;;2.80;;
22857;SDS011;13919;45.644;13.764;2022-08-20T06:29:38;10.60;;;3.15;;
22857;SDS011;13919;45.644;13.764;2022-08-20T06:32:05;9.02;;;3.10;;
22857;SDS011;13919;45.644;13.764;2022-08-20T06:34:31;8.38;;;2.53;;
22857;SDS011;13919;45.644;13.764;2022-08-20T06:36:57;9.25;;;3.00;;
22857;SDS011;13919;45.644;13.764;2022-08-20T06:39:24;10.20;;;3.17;;
22857;SDS011;13919;45.644;13.764;2022-08-20T06:41:53;9.20;;;3.45;;
22857;SDS011;13919;45.644;13.764;2022-08-20T06:44:22;8.82;;;3.20;;
22857;SDS011;13919;45.644;13.764;2022-08-20T06:46:48;10.65;;;3.30;;
22857;SDS011;13919;45.644;13.764;2022-08-20T06:49:14;11.27;;;3.10;;
22857;SDS011;13919;45.644;13.764;2022-08-20T06:51:40;9.30;;;2.90;;
22857;SDS011;13919;45.644;13.764;2022-08-20T06:54:06;13.27;;;2.78;;
22857;SDS011;13919;45.644;13.764;2022-08-20T06:56:33;5.57;;;2.60;;
22857;SDS011;13919;45.644;13.764;2022-08-20T06:58:59;8.93;;;2.97;;
22857;SDS011;13919;45.644;13.764;2022-08-20T07:01:25;8.73;;;3.05;;
22857;SDS011;13919;45.644;13.764;2022-08-20T07:03:51;10.98;;;2.70;;
22857;SDS011;13919;45.644;13.764;2022-08-20T07:06:17;10.20;;;3.53;;
22857;SDS011;13919;45.644;13.764;2022-08-20T07:08:43;8.98;;;3.10;;
22857;SDS011;13919;45.644;13.764;2022-08-20T07:11:09;8.98;;;2.42;;
22857;SDS011;13919;45.644;13.764;2022-08-20T07:13:36;11.63;;;2.83;;
22857;SDS011;13919;45.644;13.764;2022-08-20T07:16:03;8.98;;;2.90;;
22857;SDS011;13919;45.644;13.764;2022-08-20T07:18:29;12.73;;;3.72;;
22857;SDS011;13919;45.644;13.764;2022-08-20T07:20:55;12.02;;;3.30;;
22857;SDS011;13919;45.644;13.764;2022-08-20T07:23:22;11.15;;;3.25;;
22857;SDS011;13919;45.644;13.764;2022-08-20T07:25:48;9.52;;;3.00;;
22857;SDS011;13919;45.644;13.764;2022-08-20T07:28:15;12.95;;;3.47;;
22857;SDS011;13919;45.644;13.764;2022-08-20T07:30:42;7.47;;;3.30;;
22857;SDS011;13919;45.644;13.764;2022-08-20T07:33:27;8.48;;;2.83;;
22857;SDS011;13919;45.644;13.764;2022-08-20T07:35:54;7.97;;;3.22;;
22857;SDS011;13919;45.644;13.764;2022-08-20T07:38:21;8.10;;;2.75;;
22857;SDS011;13919;45.644;13.764;2022-08-20T07:40:51;9.50;;;2.85;;
22857;SDS011;13919;45.644;13.764;2022-08-20T07:43:17;8.10;;;2.72;;
22857;SDS011;13919;45.644;13.764;2022-08-20T07:45:45;8.98;;;3.15;;
22857;SDS011;13919;45.644;13.764;2022-08-20T07:48:12;13.02;;;2.88;;
22857;SDS011;13919;45.644;13.764;2022-08-20T07:50:39;8.50;;;2.70;;
22857;SDS011;13919;45.644;13.764;2022-08-20T07:53:05;11.05;;;2.78;;
22857;SDS011;13919;45.644;13.764;2022-08-20T07:55:31;7.85;;;2.70;;
22857;SDS011;13919;45.644;13.764;2022-08-20T07:58:00;9.07;;;3.15;;
22857;SDS011;13919;45.644;13.764;2022-08-20T08:00:30;10.05;;;2.75;;
22857;SDS011;13919;45.644;13.764;2022-08-20T08:02:57;12.50;;;3.15;;
22857;SDS011;13919;45.644;13.764;2022-08-20T08:05:24;9.93;;;2.58;;
22857;SDS011;13919;45.644;13.764;2022-08-20T08:07:50;10.35;;;3.30;;
22857;SDS011;13919;45.644;13.764;2022-08-20T08:10:19;8.18;;;2.80;;
22857;SDS011;13919;45.644;13.764;2022-08-20T08:12:47;10.60;;;2.88;;
22857;SDS011;13919;45.644;13.764;2022-08-20T08:15:15;9.07;;;2.90;;
22857;SDS011;13919;45.644;13.764;2022-08-20T08:17:42;7.68;;;2.70;;
22857;SDS011;13919;45.644;13.764;2022-08-20T08:20:09;7.60;;;2.80;;
22857;SDS011;13919;45.644;13.764;2022-08-20T08:22:36;8.82;;;2.85;;
22857;SDS011;13919;45.644;13.764;2022-08-20T08:25:03;9.02;;;2.92;;
22857;SDS011;13919;45.644;13.764;2022-08-20T08:27:30;9.05;;;2.88;;
22857;SDS011;13919;45.644;13.764;2022-08-20T08:29:58;8.43;;;3.28;;
22857;SDS011;13919;45.644;13.764;2022-08-20T08:32:24;8.35;;;3.38;;
22857;SDS011;13919;45.644;13.764;2022-08-20T08:34:51;12.32;;;3.47;;
22857;SDS011;13919;45.644;13.764;2022-08-20T08:37:17;12.13;;;3.63;;
22857;SDS011;13919;45.644;13.764;2022-08-20T08:39:43;11.95;;;3.58;;
22857;SDS011;13919;45.644;13.764;2022-08-20T08:42:44;13.88;;;4.63;;
22857;SDS011;13919;45.644;13.764;2022-08-20T08:45:01;13.13;;;3.83;;
22857;SDS011;13919;45.644;13.764;2022-08-20T08:47:30;12.27;;;3.30;;
22857;SDS011;13919;45.644;13.764;2022-08-20T08:49:58;10.25;;;3.65;;
22857;SDS011;13919;45.644;13.764;2022-08-20T08:52:27;10.52;;;3.72;;
22857;SDS011;13919;45.644;13.764;2022-08-20T08:54:56;13.05;;;4.53;;
22857;SDS011;13919;45.644;13.764;2022-08-20T08:57:23;7.40;;;3.65;;
22857;SDS011;13919;45.644;13.764;2022-08-20T08:59:57;7.68;;;3.55;;
22857;SDS011;13919;45.644;13.764;2022-08-20T09:02:25;14.95;;;3.80;;
22857;SDS011;13919;45.644;13.764;2022-08-20T09:04:52;11.10;;;3.40;;
22857;SDS011;13919;45.644;13.764;2022-08-20T09:07:20;11.27;;;3.43;;
22857;SDS011;13919;45.644;13.764;2022-08-20T09:09:48;9.35;;;3.55;;
22857;SDS011;13919;45.644;13.764;2022-08-20T09:12:16;13.65;;;3.38;;
22857;SDS011;13919;45.644;13.764;2022-08-20T09:14:43;14.32;;;3.22;;
22857;SDS011;13919;45.644;13.764;2022-08-20T09:17:12;10.70;;;3.10;;
22857;SDS011;13919;45.644;13.764;2022-08-20T09:19:38;10.65;;;3.33;;
22857;SDS011;13919;45.644;13.764;2022-08-20T09:22:11;10.73;;;3.60;;
22857;SDS011;13919;45.644;13.764;2022-08-20T09:24:38;7.63;;;3.22;;
22857;SDS011;13919;45.644;13.764;2022-08-20T09:27:04;13.75;;;3.38;;
22857;SDS011;13919;45.644;13.764;2022-08-20T09:29:31;9.13;;;3.22;;
22857;SDS011;13919;45.644;13.764;2022-08-20T09:34:29;8.32;;;3.08;;
22857;SDS011;13919;45.644;13.764;2022-08-20T09:36:55;11.93;;;3.42;;
22857;SDS011;13919;45.644;13.764;2022-08-20T09:39:21;12.68;;;3.28;;
22857;SDS011;13919;45.644;13.764;2022-08-20T09:41:47;10.15;;;3.47;;
22857;SDS011;13919;45.644;13.764;2022-08-20T09:44:13;12.25;;;3.33;;
22857;SDS011;13919;45.644;13.764;2022-08-20T09:46:41;9.27;;;3.55;;
22857;SDS011;13919;45.644;13.764;2022-08-20T09:49:07;11.85;;;3.30;;
22857;SDS011;13919;45.644;13.764;2022-08-20T09:51:33;14.85;;;3.10;;
22857;SDS011;13919;45.644;13.764;2022-08-20T09:53:59;13.85;;;3.58;;
22857;SDS011;13919;45.644;13.764;2022-08-20T09:56:26;10.55;;;2.63;;
22857;SDS011;13919;45.644;13.764;2022-08-20T09:58:53;9.27;;;3.22;;
22857;SDS011;13919;45.644;13.764;2022-08-20T10:01:20;5.60;;;2.55;;
22857;SDS011;13919;45.644;13.764;2022-08-20T10:03:47;15.43;;;3.72;;
22857;SDS011;13919;45.644;13.764;2022-08-20T10:06:14;9.00;;;2.75;;
22857;SDS011;13919;45.644;13.764;2022-08-20T10:08:41;11.75;;;3.08;;
22857;SDS011;13919;45.644;13.764;2022-08-20T10:11:07;10.18;;;3.20;;
22857;SDS011;13919;45.644;13.764;2022-08-20T10:13:33;11.00;;;2.92;;
22857;SDS011;13919;45.644;13.764;2022-08-20T10:15:59;6.93;;;3.05;;
22857;SDS011;13919;45.644;13.764;2022-08-20T10:18:25;12.25;;;3.00;;
22857;SDS011;13919;45.644;13.764;2022-08-20T10:20:51;9.70;;;2.55;;
22857;SDS011;13919;45.644;13.764;2022-08-20T10:23:17;12.45;;;2.90;;
22857;SDS011;13919;45.644;13.764;2022-08-20T10:25:43;7.63;;;2.50;;
22857;SDS011;13919;45.644;13.764;2022-08-20T10:28:09;11.02;;;2.88;;
22857;SDS011;13919;45.644;13.764;2022-08-20T10:30:35;10.25;;;3.60;;
22857;SDS011;13919;45.644;13.764;2022-08-20T10:33:01;9.85;;;2.85;;
22857;SDS011;13919;45.644;13.764;2022-08-20T10:35:27;8.93;;;2.95;;
22857;SDS011;13919;45.644;13.764;2022-08-20T10:37:53;9.35;;;2.75;;
22857;SDS011;13919;45.644;13.764;2022-08-20T10:40:19;9.77;;;2.85;;
22857;SDS011;13919;45.644;13.764;2022-08-20T10:42:46;10.57;;;2.90;;
22857;SDS011;13919;45.644;13.764;2022-08-20T10:45:12;10.80;;;2.70;;
22857;SDS011;13919;45.644;13.764;2022-08-20T10:47:39;12.30;;;3.10;;
22857;SDS011;13919;45.644;13.764;2022-08-20T10:50:07;7.95;;;2.75;;
22857;SDS011;13919;45.644;13.764;2022-08-20T10:52:33;11.50;;;3.35;;
22857;SDS011;13919;45.644;13.764;2022-08-20T10:54:59;11.20;;;2.90;;
22857;SDS011;13919;45.644;13.764;2022-08-20T10:57:28;15.95;;;3.53;;
22857;SDS011;13919;45.644;13.764;2022-08-20T10:59:55;12.20;;;2.63;;
22857;SDS011;13919;45.644;13.764;2022-08-20T11:02:22;10.68;;;3.13;;
22857;SDS011;13919;45.644;13.764;2022-08-20T11:04:49;7.68;;;2.90;;
22857;SDS011;13919;45.644;13.764;2022-08-20T11:09:44;12.43;;;2.97;;
22857;SDS011;13919;45.644;13.764;2022-08-20T11:12:10;7.30;;;2.67;;
22857;SDS011;13919;45.644;13.764;2022-08-20T11:14:37;10.10;;;2.83;;
22857;SDS011;13919;45.644;13.764;2022-08-20T11:17:03;11.80;;;2.97;;
22857;SDS011;13919;45.644;13.764;2022-08-20T11:19:29;9.93;;;3.05;;
22857;SDS011;13919;45.644;13.764;2022-08-20T11:21:55;8.20;;;3.00;;
22857;SDS011;13919;45.644;13.764;2022-08-20T11:24:21;9.38;;;2.88;;
22857;SDS011;13919;45.644;13.764;2022-08-20T11:26:48;12.05;;;3.55;;
22857;SDS011;13919;45.644;13.764;2022-08-20T11:29:14;18.45;;;3.90;;
22857;SDS011;13919;45.644;13.764;2022-08-20T11:31:41;12.90;;;3.17;;
22857;SDS011;13919;45.644;13.764;2022-08-20T11:34:07;10.30;;;3.15;;
22857;SDS011;13919;45.644;13.764;2022-08-20T11:36:33;10.88;;;2.70;;
22857;SDS011;13919;45.644;13.764;2022-08-20T11:38:59;7.05;;;2.70;;
22857;SDS011;13919;45.644;13.764;2022-08-20T11:41:25;8.68;;;3.00;;
22857;SDS011;13919;45.644;13.764;2022-08-20T11:43:51;6.85;;;2.80;;
22857;SDS011;13919;45.644;13.764;2022-08-20T11:46:18;7.28;;;2.45;;
22857;SDS011;13919;45.644;13.764;2022-08-20T11:48:44;8.18;;;2.65;;
22857;SDS011;13919;45.644;13.764;2022-08-20T11:51:10;6.95;;;2.25;;
22857;SDS011;13919;45.644;13.764;2022-08-20T11:53:36;6.43;;;2.10;;
22857;SDS011;13919;45.644;13.764;2022-08-20T11:56:02;7.28;;;2.20;;
22857;SDS011;13919;45.644;13.764;2022-08-20T11:58:28;5.28;;;1.90;;
22857;SDS011;13919;45.644;13.764;2022-08-20T12:00:54;4.38;;;2.15;;
22857;SDS011;13919;45.644;13.764;2022-08-20T12:03:20;8.40;;;2.10;;
22857;SDS011;13919;45.644;13.764;2022-08-20T12:05:46;7.50;;;2.50;;
22857;SDS011;13919;45.644;13.764;2022-08-20T12:08:13;9.77;;;3.20;;
22857;SDS011;13919;45.644;13.764;2022-08-20T12:10:40;6.55;;;2.80;;
22857;SDS011;13919;45.644;13.764;2022-08-20T12:13:06;6.93;;;2.50;;
22857;SDS011;13919;45.644;13.764;2022-08-20T12:15:33;8.95;;;2.88;;
22857;SDS011;13919;45.644;13.764;2022-08-20T12:17:59;9.98;;;3.17;;
22857;SDS011;13919;45.644;13.764;2022-08-20T12:20:25;6.40;;;2.90;;
22857;SDS011;13919;45.644;13.764;2022-08-20T12:22:51;8.98;;;2.63;;
22857;SDS011;13919;45.644;13.764;2022-08-20T12:25:18;11.13;;;2.75;;
22857;SDS011;13919;45.644;13.764;2022-08-20T12:27:44;9.75;;;3.42;;
22857;SDS011;13919;45.644;13.764;2022-08-20T12:30:13;9.00;;;2.70;;
22857;SDS011;13919;45.644;13.764;2022-08-20T12:32:39;9.32;;;3.20;;
22857;SDS011;13919;45.644;13.764;2022-08-20T12:35:07;8.98;;;3.08;;
22857;SDS011;13919;45.644;13.764;2022-08-20T12:37:34;10.50;;;3.65;;
22857;SDS011;13919;45.644;13.764;2022-08-20T12:40:00;8.90;;;3.53;;
22857;SDS011;13919;45.644;13.764;2022-08-20T12:42:28;9.48;;;2.92;;
22857;SDS011;13919;45.644;13.764;2022-08-20T12:44:55;8.00;;;2.78;;
22857;SDS011;13919;45.644;13.764;2022-08-20T12:47:25;9.38;;;2.92;;
22857;SDS011;13919;45.644;13.764;2022-08-20T12:50:03;7.18;;;2.72;;
22857;SDS011;13919;45.644;13.764;2022-08-20T12:52:29;13.93;;;2.75;;
22857;SDS011;13919;45.644;13.764;2022-08-20T12:54:56;12.02;;;2.60;;
22857;SDS011;13919;45.644;13.764;2022-08-20T12:57:35;8.57;;;3.08;;
22857;SDS011;13919;45.644;13.764;2022-08-20T13:00:09;9.93;;;2.88;;
22857;SDS011;13919;45.644;13.764;2022-08-20T13:02:35;8.30;;;2.35;;
22857;SDS011;13919;45.644;13.764;2022-08-20T13:05:03;5.75;;;2.33;;
22857;SDS011;13919;45.644;13.764;2022-08-20T13:07:29;10.82;;;2.90;;
22857;SDS011;13919;45.644;13.764;2022-08-20T13:09:55;8.52;;;2.67;;
22857;SDS011;13919;45.644;13.764;2022-08-20T13:12:21;10.80;;;2.75;;
22857;SDS011;13919;45.644;13.764;2022-08-20T13:14:47;7.65;;;2.90;;
22857;SDS011;13919;45.644;13.764;2022-08-20T13:17:14;7.82;;;2.40;;
22857;SDS011;13919;45.644;13.764;2022-08-20T13:19:41;9.70;;;2.57;;
22857;SDS011;13919;45.644;13.764;2022-08-20T13:22:09;8.00;;;2.50;;
22857;SDS011;13919;45.644;13.764;2022-08-20T13:24:35;10.60;;;2.70;;
22857;SDS011;13919;45.644;13.764;2022-08-20T13:27:03;11.80;;;2.65;;
22857;SDS011;13919;45.644;13.764;2022-08-20T13:29:29;8.90;;;2.33;;
22857;SDS011;13919;45.644;13.764;2022-08-20T13:31:55;6.43;;;2.22;;
22857;SDS011;13919;45.644;13.764;2022-08-20T13:34:21;10.02;;;2.33;;
22857;SDS011;13919;45.644;13.764;2022-08-20T13:36:47;9.55;;;2.45;;
22857;SDS011;13919;45.644;13.764;2022-08-20T13:39:13;6.93;;;2.30;;
22857;SDS011;13919;45.644;13.764;2022-08-20T13:41:39;8.25;;;2.10;;
22857;SDS011;13919;45.644;13.764;2022-08-20T13:44:05;8.55;;;2.30;;
22857;SDS011;13919;45.644;13.764;2022-08-20T13:46:31;4.75;;;1.80;;
22857;SDS011;13919;45.644;13.764;2022-08-20T13:48:57;7.78;;;1.88;;
22857;SDS011;13919;45.644;13.764;2022-08-20T13:51:24;7.05;;;2.38;;
22857;SDS011;13919;45.644;13.764;2022-08-20T13:53:50;7.28;;;1.90;;
22857;SDS011;13919;45.644;13.764;2022-08-20T13:56:16;6.82;;;2.10;;
22857;SDS011;13919;45.644;13.764;2022-08-20T13:58:42;10.27;;;2.08;;
22857;SDS011;13919;45.644;13.764;2022-08-20T14:01:08;7.55;;;1.90;;
22857;SDS011;13919;45.644;13.764;2022-08-20T14:03:34;9.05;;;2.40;;
22857;SDS011;13919;45.644;13.764;2022-08-20T14:06:00;11.07;;;2.35;;
22857;SDS011;13919;45.644;13.764;2022-08-20T14:08:27;11.02;;;2.08;;
22857;SDS011;13919;45.644;13.764;2022-08-20T14:10:53;7.32;;;1.70;;
22857;SDS011;13919;45.644;13.764;2022-08-20T14:13:20;6.35;;;2.13;;
22857;SDS011;13919;45.644;13.764;2022-08-20T14:15:46;6.05;;;2.15;;
22857;SDS011;13919;45.644;13.764;2022-08-20T14:18:13;11.52;;;2.08;;
22857;SDS011;13919;45.644;13.764;2022-08-20T14:20:39;4.63;;;1.80;;
22857;SDS011;13919;45.644;13.764;2022-08-20T14:23:06;5.57;;;1.70;;
22857;SDS011;13919;45.644;13.764;2022-08-20T14:25:33;9.50;;;1.90;;
22857;SDS011;13919;45.644;13.764;2022-08-20T14:28:07;4.25;;;1.77;;
22857;SDS011;13919;45.644;13.764;2022-08-20T14:30:34;6.70;;;2.03;;
22857;SDS011;13919;45.644;13.764;2022-08-20T14:33:00;7.70;;;2.03;;
22857;SDS011;13919;45.644;13.764;2022-08-20T14:35:26;5.10;;;2.10;;